Tiempo atmosférico en la estación meteorológica de Adra,club Naútico, Almería (8 m.)



Fecha
DESCASC
Temp. máxima en grados centígrados (hora)
DESCASC
Temp. mínima en grados centígrados (hora)
DESCASC
Temp. media en grados centígrados
DESCASC
Racha de viento máxima en m/sg (hora)
DESCASC
Velocidad máxima media en intervalos de 10 minutos(hora)
DESCASC
Precipitaciones diarias en mm
DESCASC
Precipitaciones de 00:00 a 06:00 en mm
DESCASC
Precipitaciones de 06:00 a 12:00 en mm
DESCASC
Precipitaciones de 12:00 a 18:00 en mm
DESCASC
Precipitaciones de 18:00 a 24:00 en mm
DESCASC

Gráficas

Temp. máximas Temp. mínimas Temp. medias Precipitaciones Rachas de viento máximas Velocidades máximas media en intervalos de 10 minutos

Datos horarios

Fecha y hora oficial Temperatura (ºC) Velocidad del viento (km/h) Dirección del viento Racha (km/h) Dirección de racha Precipitación (mm) Presión (hPa) Tendencia (hPa) Humedad (%)
2019-06-24 23:00:00 21.2 3 Sudeste 5 Oeste 0 1014.3 2.3 89
2019-06-24 22:00:00 21.1 3 Sudoeste 10 Oeste 0 1013.2 0.8 87
2019-06-24 21:00:00 21.6 7 Oeste 26 Sudoeste 0 1012.7 0.2 86
2019-06-24 20:00:00 22.2 12 Sudoeste 21 Oeste 0 1012 -0.6 76
2019-06-24 19:00:00 21.9 14 Oeste 26 Oeste 0 1012.4 0 83
2019-06-24 18:00:00 21.6 19 Oeste 26 Sudoeste 0 1012.5 -0.5 83
2019-06-24 17:00:00 21.9 19 Oeste 25 Oeste 0 1012.6 -0.5 84
2019-06-24 16:00:00 22.8 13 Sudoeste 24 Oeste 0 1012.4 -0.9 81
2019-06-24 15:00:00 22.6 15 Oeste 25 Oeste 0 1013 -0.1 82
2019-06-24 14:00:00 23.4 10 Sudoeste 18 Sudoeste 0 1013.1 0.1 73
2019-06-24 13:00:00 23.2 9 Sudoeste 19 Sudoeste 0 1013.3 0.3 77
2019-06-24 12:00:00 22.8 9 Sudoeste 15 Sudoeste 0 1013.1 0.3 78
2019-06-24 11:00:00 24.6 3 Sur 9 Sudoeste 0 1013 0.1 73
2019-06-24 10:00:00 24.6 2 Sur 8 Sur 0 1013 -0.3 73
2019-06-24 09:00:00 22.7 3 Sudoeste 8 Oeste 0 1012.8 -0.5 81
2019-06-24 08:00:00 20.7 0 Calma 4 Sudeste 0 1012.9 -0.5 88
2019-06-24 07:00:00 20 0 Calma 3 Oeste 0 1013.3 -0.2 87
2019-06-24 06:00:00 19.9 0 Calma 4 Sudeste 0 1013.3 -0.6 88
2019-06-24 05:00:00 20.2 0 Calma 4 Sudoeste 0 1013.4 -0.8 87
2019-06-24 04:00:00 20.4 3 Sudeste 4 Sudeste 0 1013.5 -0.5 86
2019-06-24 03:00:00 20.5 3 Sudeste 5 Sudeste 0 1013.9 0.3 86
2019-06-24 02:00:00 21.2 0 Calma 5 Sur 0 1014.2 0.8 84
2019-06-24 01:00:00 21.7 3 Oeste 7 Oeste 0 1014 1.4 82
2019-06-24 00:00:00 21.8 0 Calma 10 Oeste 0 1013.6 1.5 83
2019-06-23 23:00:00 21.6 7 Oeste 14 Oeste 0 1013.4 2.1 83
2019-06-23 22:00:00 21.7 8 Oeste 13 Sudoeste 0 1012.6 1.8 84
2019-06-23 21:00:00 22.2 9 Oeste 15 Oeste 0 1012.1 1.1 81
2019-06-23 20:00:00 23.2 8 Oeste 14 Sudoeste 0 1011.3 0.1 76
2019-06-23 19:00:00 23.5 7 Sudoeste 16 Sudoeste 0 1010.8 -1.2 76
2019-06-23 18:00:00 23.6 8 Sudoeste 14 Sudoeste 0 1011 -1.2 77
2019-06-23 17:00:00 24 6 Sudoeste 18 Oeste 0 1011.2 -1.8 76
2019-06-23 16:00:00 23.2 10 Sudoeste 17 Oeste 0 1012 -0.8 78
2019-06-23 15:00:00 23.4 8 Sudoeste 18 Oeste 0 1012.2 -1.3 77
2019-06-23 14:00:00 23.2 11 Sudoeste 17 Sudoeste 0 1013 -0.7 77
2019-06-23 13:00:00 23.7 6 Sudoeste 11 Sudoeste 0 1012.8 -1.1 72
2019-06-23 12:00:00 22.4 6 Sudoeste 13 Sudoeste 0 1013.5 -0.1 79
2019-06-23 11:00:00 22 5 Sudoeste 11 Sudoeste 0 1013.7 0.3 83
2019-06-23 10:00:00 21.2 6 Sudoeste 13 Sudoeste 0 1013.9 0.3 84
2019-06-23 09:00:00 20.9 5 Sudoeste 11 Sudoeste 0 1013.6 -0.1 88
2019-06-23 08:00:00 20.5 4 Sudoeste 13 Oeste 0 1013.4 0 91
2019-06-23 07:00:00 20.4 6 Oeste 17 Oeste 0 1013.6 -0.1 91
2019-06-23 06:00:00 20.4 7 Oeste 13 Oeste 0 1013.7 -0.4 87
2019-06-23 05:00:00 20.4 3 Oeste 10 Oeste 0 1013.4 -0.9 86
2019-06-23 04:00:00 20.3 4 Oeste 10 Oeste 0 1013.7 -0.5 86
2019-06-23 03:00:00 20 5 Oeste 11 Sudoeste 0 1014.1 -0.3 93
2019-06-23 02:00:00 20.3 6 Oeste 11 Oeste 0 1014.3 -0.1 93
2019-06-23 01:00:00 20.7 4 Sudoeste 6 Sudoeste 0 1014.2 0.3 93
2019-06-23 00:00:00 20.9 3 Sudeste 5 Sudeste 0 1014.4 0.8 92
2019-06-22 23:00:00 21.1 2 Sudeste 6 Sudeste 0 1014.4 1.4 89
2019-06-22 22:00:00 21.6 5 Sudeste 9 Sudeste 0 1013.9 1.4 84
2019-06-22 21:00:00 22.8 3 Sudeste 6 Sur 0 1013.6 0.7 73
2019-06-22 20:00:00 23.1 4 Sudeste 10 Sudeste 0 1013 0.1 73
2019-06-22 19:00:00 23.8 4 Sudeste 15 Sur 0 1012.5 -0.6 71
2019-06-22 18:00:00 23.7 5 Sudeste 10 Sudeste 0 1012.9 -1 66
2019-06-22 17:00:00 24.6 4 Sudeste 10 Sudeste 0 1012.9 -1.8 63
2019-06-22 16:00:00 25.1 3 Sudeste 12 Sur 0 1013.1 -1.9 63
2019-06-22 15:00:00 25 3 Sur 9 Sur 0 1013.9 -1 66
2019-06-22 14:00:00 24.5 3 Sudeste 8 Sudeste 0 1014.7 0.2 68
2019-06-22 13:00:00 24.6 3 Sudeste 10 Sudeste 0 1015 0.4 67
2019-06-22 12:00:00 24.1 4 Sudeste 14 Este 0 1014.9 0.1 68
2019-06-22 11:00:00 24.9 2 Sudoeste 9 Sudeste 0 1014.5 -0.4 60
2019-06-22 10:00:00 24.5 2 Sur 11 Este 0 1014.6 -0.6 61
2019-06-22 09:00:00 23.8 5 Este 15 Este 0 1014.8 -0.4 60
2019-06-22 08:00:00 21.7 6 Nordeste 14 Norte 0 1014.9 -0.2 70
2019-06-22 07:00:00 20.5 3 Este 12 Este 0 1015.2 0 77
2019-06-22 06:00:00 19.6 4 Este 9 Este 0 1015.2 -0.1 87
2019-06-22 05:00:00 19.6 2 Este 7 Este 0 1015.1 -0.3 94
2019-06-22 04:00:00 19.7 2 Este 7 Este 0 1015.2 -0.1 94
2019-06-22 03:00:00 19.8 3 Sudeste 9 Este 0 1015.3 0.4 93
2019-06-22 02:00:00 19.8 5 Este 10 Este 0 1015.4 1.1 93
2019-06-22 01:00:00 20.2 4 Este 10 Este 0 1015.3 1.8 92
2019-06-22 00:00:00 20.4 5 Sudeste 10 Sudeste 0 1014.9 2 88
2019-06-21 23:00:00 21.4 4 Este 12 Este 0 1014.3 2.1 75
2019-06-21 22:00:00 20.8 3 Sudeste 5 Este 0 1013.5 1.6 82
2019-06-21 21:00:00 21.3 4 Sudoeste 17 Oeste 0 1012.9 0.9 79
2019-06-21 20:00:00 21 13 Oeste 18 Oeste 0 1012.2 0.2 81
2019-06-21 19:00:00 20.8 14 Oeste 19 Oeste 0 1011.9 -0.6 84
2019-06-21 18:00:00 21.3 15 Oeste 21 Oeste 0 1012 0.2 79
2019-06-21 17:00:00 20.9 15 Oeste 23 Oeste 0 1012 -0.8 79
2019-06-21 16:00:00 21.5 16 Oeste 22 Oeste 0 1012.5 -0.5 81
2019-06-21 15:00:00 23.6 7 Sudoeste 12 Sudoeste 0 1011.8 -1.3 67
2019-06-21 14:00:00 23.3 5 Sudeste 10 Sudeste 0 1012.8 -0.2 67
2019-06-21 13:00:00 22.5 3 Sudeste 10 Nordeste 0 1013 -0.4 71
2019-06-21 12:00:00 23 0 Calma 10 Este 0 1013.1 0.3 73
2019-06-21 11:00:00 22.9 0 Calma 11 Sudeste 0 1013 0.4 74
2019-06-21 10:00:00 21.4 8 Sudeste 18 Este 0 1013.4 0.5 78
2019-06-21 09:00:00 21 5 Este 17 Este 0 1012.8 0.5 81
2019-06-21 08:00:00 19.2 5 Este 17 Este 0 1012.6 0.4 83
2019-06-21 07:00:00 18.3 5 Este 15 Este 0 1012.9 0.6 89
2019-06-21 06:00:00 18.6 5 Este 13 Nordeste 0 1012.3 -0.1 89
2019-06-21 05:00:00 18.7 2 Este 10 Este 0 1012.2 0.2 92
2019-06-21 04:00:00 18.4 0 Calma 6 Este 0 1012.3 1.3 92
2019-06-21 03:00:00 18.4 0 Calma 9 Este 0 1012.4 1.6 93
2019-06-21 02:00:00 18.4 2 Noroeste 22 Oeste 0 1012 1.5 93
2019-06-21 01:00:00 18.9 17 Oeste 26 Oeste 0 1011 1.3 89
2019-06-21 00:00:00 19.7 18 Oeste 30 Oeste 0 1010.8 1.6 82
2019-06-20 23:00:00 20.7 17 Oeste 36 Oeste 0 1010.5 1.3 75
2019-06-20 22:00:00 21.7 23 Oeste 38 Oeste 0 1009.7 1 66
2019-06-20 21:00:00 22.4 25 Oeste 40 Oeste 0 1009.2 -0.2 62
2019-06-20 20:00:00 22.8 24 Oeste 43 Oeste 0 1009.2 -0.3 61
2019-06-20 19:00:00 23.2 29 Oeste 50 Sudoeste 0 1008.7 -1 60
2019-06-20 18:00:00 23.2 35 Oeste 49 Oeste 0 1009.4 -1.2 61
2019-06-20 17:00:00 22.7 28 Oeste 47 Oeste 0 1009.5 -2.1 66
2019-06-20 16:00:00 22.5 24 Oeste 40 Oeste 0 1009.7 -2.1 67
2019-06-20 15:00:00 21.8 18 Sudoeste 37 Sudoeste 0 1010.6 -1.2 73
2019-06-20 14:00:00 20.9 21 Oeste 37 Sudoeste 0 1011.6 -0.4 81
2019-06-20 13:00:00 20.7 21 Sudoeste 32 Oeste 0 1011.8 -0.1 82
2019-06-20 12:00:00 20.3 21 Oeste 35 Oeste 0 1011.8 -0.3 87
2019-06-20 11:00:00 20.2 19 Oeste 30 Oeste 0 1012 0.4 89
2019-06-20 10:00:00 20.1 16 Oeste 27 Oeste 0 1011.9 0 91
2019-06-20 09:00:00 19.6 13 Oeste 20 Sudoeste 0 1012.1 0.6 93
2019-06-20 08:00:00 19.3 4 Sudoeste 9 Sudoeste 0 1011.6 0 95
2019-06-20 07:00:00 19.2 5 Oeste 13 Oeste 0 1011.9 0.1 94
2019-06-20 06:00:00 19.2 8 Oeste 14 Sudoeste 0 1011.5 -0.1 92
2019-06-20 05:00:00 18.8 0 Calma 9 Oeste 0 1011.6 -0.4 93
2019-06-20 04:00:00 19.7 2 Noroeste 12 Este 0 1011.8 -0.1 90
2019-06-20 03:00:00 20.1 6 Este 19 Este 0 1011.6 -0.2 89
2019-06-20 02:00:00 20.5 5 Este 13 Este 0 1012 0.5 88
2019-06-20 01:00:00 20.8 5 Este 13 Este 0 1011.9 1.3 84
2019-06-20 00:00:00 21.1 5 Este 11 Este 0 1011.8 1.9 83
2019-06-19 23:00:00 20.9 0 Calma 17 Oeste 0 1011.5 1.3 82
2019-06-19 22:00:00 21.2 10 Oeste 20 Oeste 0 1010.6 1 78
2019-06-19 21:00:00 22.5 9 Oeste 23 Sudoeste 0 1009.9 -0.9 72
2019-06-19 20:00:00 22.8 14 Oeste 29 Oeste 0 1010.2 -1.6 70
2019-06-19 19:00:00 22.7 10 Oeste 29 Oeste 0 1009.6 -2.8 72
2019-06-19 18:00:00 22.2 17 Oeste 31 Oeste 0 1010.8 -2.6 73
2019-06-19 17:00:00 22.3 13 Sudoeste 27 Oeste 0 1011.8 -2.2 76
2019-06-19 16:00:00 21.2 14 Sudoeste 26 Oeste 0 1012.4 -1.9 82
2019-06-19 15:00:00 20.5 18 Oeste 25 Oeste 0 1013.4 -0.5 86
2019-06-19 14:00:00 21.2 12 Sudoeste 26 Oeste 0 1014 0.1 84
2019-06-19 13:00:00 21 15 Oeste 31 Sudoeste 0 1014.3 0.2 86
2019-06-19 12:00:00 21.1 12 Sudoeste 23 Oeste 0 1013.9 0.1 84
2019-06-19 11:00:00 20.4 10 Sudoeste 19 Oeste 0 1013.9 0 87
2019-06-19 10:00:00 20.2 9 Sudoeste 18 Oeste 0 1014.1 0 89
2019-06-19 09:00:00 19.6 12 Oeste 17 Oeste 0 1013.8 -0.3 83
2019-06-19 08:00:00 18.7 9 Oeste 14 Oeste 0 1013.9 -0.3 81
2019-06-19 07:00:00 18 3 Noroeste 7 Oeste 0 1014.1 -0.1 86
2019-06-19 06:00:00 18 2 Noroeste 5 Oeste 0 1014.1 -0.2 89
2019-06-19 05:00:00 18.6 0 Calma 8 Norte 0 1014.2 -0.3 89
2019-06-19 04:00:00 19.1 2 Norte 14 Este 0 1014.2 -0.1 86
2019-06-19 03:00:00 18.5 6 Nordeste 13 Este 0 1014.3 0 87
2019-06-19 02:00:00 19.6 4 Nordeste 12 Este 0 1014.5 1 86
2019-06-19 01:00:00 19.8 0 Calma 6 Este 0 1014.3 1.3 80
2019-06-19 00:00:00 20.4 3 Oeste 16 Sudoeste 0 1014.3 1.5 77
2019-06-18 23:00:00 21.4 5 Este 15 Sudoeste 0 1013.5 1.1 64
2019-06-18 22:00:00 21 9 Oeste 28 Oeste 0 1013 0.5 68
2019-06-18 21:00:00 21.1 17 Oeste 27 Oeste 0 1012.8 -0.6 72
2019-06-18 20:00:00 21.2 17 Oeste 31 Oeste 0 1012.4 -1.4 73
2019-06-18 19:00:00 21.1 16 Oeste 28 Sudoeste 0 1012.5 -1.7 72
2019-06-18 18:00:00 20.5 19 Sudoeste 30 Sudoeste 0 1013.4 -1.5 87
2019-06-18 17:00:00 21.4 15 Sudoeste 24 Sudoeste 0 1013.8 -1.5 79
2019-06-18 16:00:00 21.7 12 Sudoeste 22 Sudoeste 0 1014.2 -1.7 78
2019-06-18 15:00:00 21 12 Sudoeste 22 Sudoeste 0 1014.9 -1.1 81
2019-06-18 14:00:00 20.7 12 Sudoeste 21 Sudoeste 0 1015.3 -0.1 83
2019-06-18 13:00:00 20.8 12 Sudoeste 21 Sudoeste 0 1015.9 0.4 84
2019-06-18 12:00:00 20.1 12 Sudoeste 18 Sudoeste 0 1016 1.2 88
2019-06-18 11:00:00 21.5 5 Sudoeste 15 Sudoeste 0 1015.4 0.5 79
2019-06-18 10:00:00 21.1 7 Sudeste 10 Sudeste 0 1015.5 0.7 79
2019-06-18 09:00:00 22.7 0 Calma 6 Sudoeste 0 1014.8 0.2 64
2019-06-18 08:00:00 20.5 3 Oeste 8 Este 0 1014.9 0.2 60
2019-06-18 07:00:00 19.8 4 Nordeste 11 Este 0 1014.8 -0.1 56
2019-06-18 06:00:00 19 0 Calma 3 Oeste 0 1014.6 -0.7 64
2019-06-18 05:00:00 18.3 0 Calma 5 Este 0 1014.7 -1 67
2019-06-18 04:00:00 19.7 0 Calma 0 Calma 0 1014.9 -1.1 65
2019-06-18 03:00:00 20.2 0 Calma 2 Norte 0 1015.3 -0.5 67
2019-06-18 02:00:00 20 0 Calma 2 Norte 0 1015.7 -0.2 67
2019-06-18 01:00:00 19.9 0 Calma 4 Oeste 0 1016 0.4 70
2019-06-18 00:00:00 19.3 0 Calma 7 Nordeste 0 1015.8 0.5 72
2019-06-17 23:00:00 19.4 4 Oeste 13 Oeste 0 1015.9 1.4 93
2019-06-17 22:00:00 19.7 8 Oeste 16 Oeste 0 1015.6 1.7 92
2019-06-17 21:00:00 20.7 11 Oeste 16 Oeste 0 1015.3 1.5 87
2019-06-17 20:00:00 21.7 8 Sudoeste 13 Sudoeste 0 1014.5 0.4 78
2019-06-17 19:00:00 22.4 6 Sudoeste 13 Sudoeste 0 1013.9 -1.3 77
2019-06-17 18:00:00 23.2 6 Sudoeste 14 Sudoeste 0 1013.8 -2.5 74
2019-06-17 17:00:00 23 4 Sudoeste 13 Sudoeste 0 1014.1 -2 76
2019-06-17 16:00:00 22.8 7 Sudoeste 24 Sudoeste 0 1015.2 -1.7 76
2019-06-17 15:00:00 21.6 12 Sudoeste 20 Sudoeste 0 1016.3 -0.8 76
2019-06-17 14:00:00 24.3 4 Sur 14 Sur 0 1016.1 -0.7 66
2019-06-17 13:00:00 23.6 5 Sur 12 Sudoeste 0 1016.9 -0.3 70
2019-06-17 12:00:00 23.1 4 Sudoeste 10 Sur 0 1017.1 -0.3 71
2019-06-17 11:00:00 23.3 2 Sur 11 Sudoeste 0 1016.8 -1.1 73
2019-06-17 10:00:00 21.7 4 Sudeste 8 Sudeste 0 1017.2 -1 73
2019-06-17 09:00:00 21.2 2 Sudeste 4 Sur 0 1017.4 -0.4 77
2019-06-17 08:00:00 19.3 0 Calma 9 Oeste 0 1017.9 0 87
2019-06-17 07:00:00 18.8 5 Oeste 10 Oeste 0 1018.2 0 88
2019-06-17 06:00:00 18.4 2 Oeste 6 Oeste 0 1017.8 -0.8 88
2019-06-17 05:00:00 18.6 3 Oeste 6 Oeste 0 1017.9 -0.8 88
2019-06-17 04:00:00 18.5 3 Noroeste 6 Noroeste 0 1018.2 -0.9 88
2019-06-17 03:00:00 18.8 4 Oeste 9 Oeste 0 1018.6 -0.7 86
2019-06-17 02:00:00 19.3 4 Oeste 12 Oeste 0 1018.7 -0.2 83
2019-06-17 01:00:00 19.6 8 Oeste 13 Oeste 0 1019.1 0.9 82
2019-06-17 00:00:00 19.1 7 Oeste 13 Oeste 0 1019.3 1.3 84
2019-06-16 23:00:00 19.6 8 Oeste 13 Oeste 0 1018.9 0.7 82
2019-06-16 22:00:00 20.2 8 Oeste 18 Oeste 0 1018.2 0.9 79
2019-06-16 21:00:00 20 13 Oeste 22 Oeste 0 1018 0.6 81
2019-06-16 20:00:00 20.4 14 Oeste 22 Oeste 0 1018.2 0.7 76
2019-06-16 19:00:00 21 15 Oeste 26 Oeste 0 1017.3 0.6 77
2019-06-16 18:00:00 20.7 15 Oeste 26 Oeste 0 1017.4 0.7 83
2019-06-16 17:00:00 20.6 16 Oeste 25 Oeste 0 1017.5 -0.5 84
2019-06-16 16:00:00 21.1 16 Oeste 25 Oeste 0 1016.7 -1.2 82
2019-06-16 15:00:00 21.9 7 Sudoeste 24 Oeste 0 1016.7 -1.7 76
2019-06-16 14:00:00 20.5 19 Oeste 31 Oeste 0 1018 1.3 82
2019-06-16 13:00:00 19.9 9 Oeste 18 Sudoeste 0 1017.9 1.2 87
2019-06-16 12:00:00 20 13 Oeste 17 Oeste 0 1018.4 0.7 86
2019-06-16 11:00:00 21.4 4 Sudeste 13 Sudeste 0 1016.7 -0.4 79
2019-06-16 10:00:00 21.2 7 Sudeste 14 Sudeste 0 1016.7 -0.4 70
2019-06-16 09:00:00 20.1 0 Calma 6 Oeste 0 1017.7 0.7 70
2019-06-16 08:00:00 18.7 5 Oeste 8 Oeste 0 1017.1 -0.1 77
2019-06-16 07:00:00 17.7 2 Norte 17 Este 0 1017.1 0 69
2019-06-16 06:00:00 17 0 Calma 8 Nordeste 0 1017 0 77
2019-06-16 05:00:00 17.9 0 Calma 6 Sudeste 0 1017.2 -0.3 81
2019-06-16 04:00:00 18.8 4 Este 11 Nordeste 0 1017.1 -1.3 72
2019-06-16 03:00:00 17.7 0 Calma 5 Nordeste 0 1017 -1.3 77
2019-06-16 02:00:00 17.7 0 Calma 10 Sudeste 0 1017.5 -0.2 78
2019-06-16 01:00:00 17.8 0 Calma 6 Nordeste 0 1018.4 1.9 89
2019-06-16 00:00:00 18.1 0 Calma 4 Norte 0 1018.3 2.1 88
2019-06-15 23:00:00 18.7 0 Calma 5 Noroeste 0 1017.7 2.2 81
2019-06-15 22:00:00 19 3 Noroeste 10 Sudoeste 0 1016.5 1 77
2019-06-15 21:00:00 19.3 5 Sudoeste 16 Sudoeste 0 1016.2 0.4 76
2019-06-15 20:00:00 20.2 8 Sudoeste 23 Oeste 0 1015.5 -0.7 74
2019-06-15 19:00:00 19.6 15 Oeste 40 Sudoeste 0 1015.5 -0.9 74
2019-06-15 18:00:00 20.2 14 Sudoeste 22 Sudoeste 0 1015.8 -1 73
2019-06-15 17:00:00 21 10 Sudoeste 19 Sudoeste 0 1016.2 -1.2 72
2019-06-15 16:00:00 21.6 8 Sudoeste 22 Sudoeste 0 1016.4 -1 68
2019-06-15 15:00:00 21 11 Sudoeste 18 Sudoeste 0 1016.8 0.4 70
2019-06-15 14:00:00 20.9 8 Sur 13 Sur 0 1017.4 1.3 68
2019-06-15 13:00:00 20.5 8 Sudoeste 14 Sudoeste 0 1017.4 0.6 68
2019-06-15 12:00:00 22.3 3 Sur 12 Sudoeste 0 1016.4 0 67
2019-06-15 11:00:00 21.7 3 Sur 10 Sudoeste 0 1016.1 -0.5 72
2019-06-15 10:00:00 20.2 5 Sudoeste 11 Sudoeste 0 1016.8 -0.1 76
2019-06-15 09:00:00 20.1 3 Sudoeste 7 Sudoeste 0 1016.4 0.4 73
2019-06-15 08:00:00 17.9 3 Este 6 Este 0 1016.6 1 77
2019-06-15 07:00:00 16.2 0 Calma 6 Oeste 0 1016.9 1 83
2019-06-15 06:00:00 17.1 6 Oeste 19 Oeste 0 1016 0.1 82
2019-06-15 05:00:00 17.4 13 Oeste 23 Oeste 0 1015.6 -0.5 85
2019-06-15 04:00:00 16.8 8 Oeste 18 Noroeste 0 1015.9 -0.3 88
2019-06-15 03:00:00 17.2 7 Oeste 13 Oeste 0 1015.9 0.3 89
2019-06-15 02:00:00 16.7 3 Noroeste 15 Oeste 0 1016.1 1.1 91
2019-06-15 01:00:00 17.6 11 Oeste 27 Oeste 0 1016.2 1.5 87
2019-06-15 00:00:00 17.6 17 Oeste 33 Oeste 0 1015.6 1.7 87
2019-06-14 23:00:00 17.7 23 Oeste 38 Oeste 0 1015 1.2 84
2019-06-14 22:00:00 18.4 25 Oeste 38 Oeste 0 1014.7 1.1 77
2019-06-14 21:00:00 19.2 20 Oeste 38 Oeste 0 1013.9 -0.1 71
2019-06-14 20:00:00 19.5 28 Oeste 41 Oeste 0 1013.8 -0.4 67
2019-06-14 19:00:00 20 28 Oeste 48 Oeste 0 1013.6 -1.1 65
2019-06-14 18:00:00 18.9 32 Oeste 48 Sudoeste 0 1014 -0.7 72
2019-06-14 17:00:00 19 28 Oeste 45 Oeste 0 1014.2 -1.1 77
2019-06-14 16:00:00 18.7 35 Oeste 48 Oeste 0 1014.7 -0.3 76
2019-06-14 15:00:00 19.3 30 Oeste 49 Oeste 0 1014.7 -0.1 72
2019-06-14 14:00:00 19.4 29 Oeste 51 Sudoeste 0 1015.3 1.3 70
2019-06-14 13:00:00 19 34 Oeste 55 Sudoeste 0 1015 1.6 70
2019-06-14 12:00:00 19.1 26 Oeste 50 Oeste 0 1014.8 1.8 72
2019-06-14 11:00:00 18.9 34 Oeste 53 Oeste 0 1014 1.7 71
2019-06-14 10:00:00 19.1 19 Oeste 35 Oeste 0 1013.4 1.1 80
2019-06-14 09:00:00 18.7 17 Oeste 31 Sudoeste 0 1013 1.3 88
2019-06-14 08:00:00 18.8 14 Sudoeste 34 Oeste 0 1012.3 1.1 91
2019-06-14 07:00:00 18.6 17 Oeste 32 Oeste 0 1012.3 2.3 93
2019-06-14 06:00:00 18.8 19 Oeste 30 Oeste 0 1011.7 0.5 93
2019-06-14 05:00:00 19.5 15 Oeste 24 Oeste 0 1011.2 -2.6 88
2019-06-14 04:00:00 20.1 8 Oeste 19 Sudoeste 0 1010 -3.5 81
2019-06-14 03:00:00 19.6 3 Sudeste 16 Oeste 0 1011.2 -1 87
2019-06-14 02:00:00 19.4 12 Oeste 20 Sudoeste 2.6 1013.8 1.8 88
2019-06-14 01:00:00 19.5 3 Oeste 7 Sur 0 1013.5 2.1 84
2019-06-14 00:00:00 19.9 4 Sudoeste 7 Oeste 0 1012.2 2.2 82
2019-06-13 23:00:00 20.6 2 Sudeste 3 Sudeste 0 1012 2.1 78
2019-06-13 22:00:00 20.5 3 Sudeste 7 Sudeste 0 1011.4 2.7 77
2019-06-13 21:00:00 21.2 2 Sur 12 Oeste 0 1010 1.3 76
2019-06-13 20:00:00 20.4 8 Oeste 13 Sudoeste 0 1009.9 1 78
2019-06-13 19:00:00 21.8 7 Sudoeste 16 Oeste 0 1008.7 -0.8 71
2019-06-13 18:00:00 21.9 8 Sudoeste 17 Sudoeste 0 1008.7 -0.7 71
2019-06-13 17:00:00 21.6 12 Sudoeste 21 Oeste 0 1008.9 -0.9 71
2019-06-13 16:00:00 21.3 13 Oeste 24 Oeste 0 1009.5 0 76
2019-06-13 15:00:00 20.9 16 Oeste 27 Oeste 0 1009.4 -0.4 77
2019-06-13 14:00:00 20.6 14 Oeste 23 Oeste 0 1009.8 0 79
2019-06-13 13:00:00 20.7 14 Oeste 22 Oeste 0 1009.5 -0.5 77
2019-06-13 12:00:00 20.8 9 Sudoeste 17 Sudoeste 0 1009.8 -0.3 81
2019-06-13 11:00:00 20.4 8 Sudoeste 12 Oeste 0 1009.8 -0.5 77
2019-06-13 10:00:00 20.7 7 Oeste 15 Oeste 0 1010 -0.6 76
2019-06-13 09:00:00 19.4 7 Oeste 14 Oeste 0 1010.1 -0.3 82
2019-06-13 08:00:00 18.9 5 Oeste 10 Oeste 0 1010.3 0.2 84
2019-06-13 07:00:00 19 4 Oeste 16 Oeste 0 1010.6 0.6 83
2019-06-13 06:00:00 18.5 4 Oeste 9 Oeste 0 1010.4 -0.5 86
2019-06-13 05:00:00 18.9 6 Oeste 10 Oeste 0 1010.1 -2.2 84
2019-06-13 04:00:00 19 0 Calma 12 Oeste 0 1010 -2.5 86
2019-06-13 03:00:00 18.7 2 Oeste 11 Norte 0 1010.9 -1.5 87
2019-06-13 02:00:00 18.5 5 Oeste 8 Sudoeste 0 1012.3 -0.2 88
2019-06-13 01:00:00 18.8 3 Sudeste 6 Sudeste 0 1012.5 0.4 87
2019-06-13 00:00:00 19.2 0 Calma 7 Sudoeste 0 1012.4 0.9 87
2019-06-12 23:00:00 19 0 Calma 8 Oeste 0 1012.5 2.5 91
2019-06-12 22:00:00 18.7 0 Calma 12 Sudeste 0 1012.1 2.4 88
2019-06-12 21:00:00 19.4 2 Sudeste 14 Sudeste 0 1011.5 1 83
2019-06-12 20:00:00 20.9 3 Oeste 13 Sudeste 0 1010 -1.2 77
2019-06-12 19:00:00 19.9 9 Sudeste 23 Sudeste 0 1009.7 -1.7 79
2019-06-12 18:00:00 19.3 17 Sudeste 29 Sudeste 0 1010.5 -1.2 79
2019-06-12 17:00:00 19.8 17 Sudeste 30 Sudeste 0 1011.2 -1.1 77
2019-06-12 16:00:00 20.5 17 Sudeste 33 Sudeste 0 1011.4 -0.9 73
2019-06-12 15:00:00 20 21 Sudeste 36 Sudeste 0 1011.7 -0.7 75
2019-06-12 14:00:00 19.8 18 Sudeste 27 Sudeste 0 1012.3 -0.1 75
2019-06-12 13:00:00 20.2 11 Sudeste 28 Sudeste 0 1012.3 -0.2 72
2019-06-12 12:00:00 20.2 18 Sudeste 28 Sudeste 0 1012.4 0.3 68
2019-06-12 11:00:00 22.5 13 Este 27 Este 0 1012.4 0.2 51
2019-06-12 10:00:00 21.6 10 Este 22 Sudeste 0 1012.5 0.3 56
2019-06-12 09:00:00 21.2 8 Este 25 Este 0 1012.1 0.3 62
2019-06-12 08:00:00 19.8 5 Este 19 Este 0 1012.2 0.6 71
2019-06-12 07:00:00 19.7 8 Este 25 Sudeste 0 1012.2 1 71
2019-06-12 06:00:00 19.5 11 Este 34 Este 0 1011.8 0.9 73
2019-06-12 05:00:00 19.6 11 Este 32 Este 0 1011.6 0.7 74
2019-06-12 04:00:00 19.5 14 Este 34 Este 0 1011.2 0.6 76
2019-06-12 03:00:00 19.5 16 Este 31 Este 0 1010.9 0.4 78
2019-06-12 02:00:00 19.9 12 Este 33 Este 0 1010.9 2.2 78
2019-06-12 01:00:00 20.6 10 Este 23 Este 0 1010.6 3.5 80
2019-06-12 00:00:00 20.2 7 Este 33 Este 0 1010.5 4 75
2019-06-11 23:00:00 19.1 8 Este 16 Nordeste 0 1008.7 2.5 78
2019-06-11 22:00:00 19.6 0 Calma 19 Oeste 0 1007.1 1.5 77
2019-06-11 21:00:00 19.2 14 Oeste 38 Oeste 0 1006.5 0.7 77
2019-06-11 20:00:00 19.5 24 Oeste 43 Oeste 0 1006.2 -0.4 75
2019-06-11 19:00:00 19.8 30 Oeste 50 Sudoeste 0 1005.6 -1.1 75
2019-06-11 18:00:00 19.3 24 Oeste 43 Oeste 0 1005.8 -1.5 76
2019-06-11 17:00:00 19.4 26 Oeste 36 Oeste 0 1006.6 -1.3 74
2019-06-11 16:00:00 19.2 19 Sudoeste 44 Oeste 0 1006.7 -1.7 78
2019-06-11 15:00:00 19.4 29 Oeste 47 Sudoeste 0 1007.3 -1.7 74
2019-06-11 14:00:00 19.2 28 Oeste 40 Oeste 0 1007.9 -0.2 75
2019-06-11 13:00:00 19.6 13 Oeste 21 Oeste 0 1008.4 0 77
2019-06-11 12:00:00 19.5 13 Oeste 22 Oeste 0 1009 0.5 79
2019-06-11 11:00:00 21.3 4 Sudoeste 10 Sudoeste 0 1008.1 -0.9 75
2019-06-11 10:00:00 21.1 2 Sur 7 Sudeste 0 1008.4 -1.2 76
2019-06-11 09:00:00 21 0 Calma 7 Norte 0 1008.5 -1 76
2019-06-11 08:00:00 18.3 0 Calma 11 Oeste 0 1009 -0.7 89
2019-06-11 07:00:00 16.6 6 Oeste 13 Oeste 0 1009.6 -0.9 91
2019-06-11 06:00:00 17.6 7 Oeste 12 Oeste 0 1009.5 -1.7 80
2019-06-11 05:00:00 18 3 Nordeste 8 Nordeste 0 1009.7 -1.7 83
2019-06-11 04:00:00 18 3 Nordeste 7 Norte 0 1010.5 -1.2 84
2019-06-11 03:00:00 17.7 0 Calma 6 Oeste 0 1011.2 -0.8 86
2019-06-11 02:00:00 17.9 3 Noroeste 10 Norte 0 1011.4 -0.8 82
2019-06-11 01:00:00 18.3 5 Nordeste 12 Este 0 1011.7 0.1 84
2019-06-11 00:00:00 17.8 2 Noroeste 5 Noroeste 0 1012 0.7 87
2019-06-10 23:00:00 18.2 0 Calma 10 Noroeste 0 1012.2 1.3 83
2019-06-10 22:00:00 18.7 5 Noroeste 22 Sudoeste 0 1011.6 0.5 82
2019-06-10 21:00:00 19 14 Oeste 30 Oeste 0 1011.3 -0.2 78
2019-06-10 20:00:00 19.7 19 Oeste 37 Sudoeste 0 1010.9 -1.2 74
2019-06-10 19:00:00 20.4 20 Oeste 37 Sudoeste 0 1011.1 -1.4 72
2019-06-10 18:00:00 20.5 18 Oeste 37 Oeste 0 1011.5 -1.4 73
2019-06-10 17:00:00 19.9 24 Oeste 39 Sudoeste 0 1012.1 -1.8 73
2019-06-10 16:00:00 20.3 23 Oeste 35 Oeste 0 1012.5 -1.4 72
2019-06-10 15:00:00 20 21 Oeste 35 Oeste 0 1012.9 -0.8 76
2019-06-10 14:00:00 19.8 20 Oeste 30 Sudoeste 0 1013.9 -0.1 75
2019-06-10 13:00:00 19.9 14 Oeste 27 Oeste 0 1013.9 0.4 78
2019-06-10 12:00:00 19.9 9 Sudoeste 17 Sudoeste 0 1013.7 0.9 77
2019-06-10 11:00:00 20.2 9 Sudoeste 20 Sudoeste 0 1014 0.9 73
2019-06-10 10:00:00 20.8 8 Sudeste 14 Este 0 1013.5 0.5 72
2019-06-10 09:00:00 20.8 7 Este 16 Este 0 1012.8 -0.2 71
2019-06-10 08:00:00 18.9 5 Este 15 Este 0 1013.1 0.3 76
2019-06-10 07:00:00 18.1 0 Calma 8 Este 0 1013 -0.1 77
2019-06-10 06:00:00 17.6 3 Norte 8 Nordeste 0 1013 -0.6 81
2019-06-10 05:00:00 18.4 4 Este 8 Nordeste 0 1012.8 -1.3 78
2019-06-10 04:00:00 17.8 0 Calma 6 Este 0 1013.1 -1.2 81
2019-06-10 03:00:00 18.1 0 Calma 7 Norte 0 1013.6 -0.6 83
2019-06-10 02:00:00 18.3 0 Calma 6 Sudoeste 0 1014.1 -0.2 86
2019-06-10 01:00:00 18.5 3 Oeste 17 Oeste 0 1014.3 0.6 83
2019-06-10 00:00:00 19 8 Oeste 17 Oeste 0 1014.2 0.9 82
2019-06-09 23:00:00 19.2 10 Oeste 29 Sudoeste 0 1014.3 0.8 78
2019-06-09 22:00:00 20.2 18 Oeste 32 Oeste 0 1013.7 0.3 71
2019-06-09 21:00:00 20.3 19 Oeste 36 Oeste 0 1013.3 -0.8 71
2019-06-09 20:00:00 20.1 23 Oeste 40 Oeste 0 1013.5 -0.9 72
2019-06-09 19:00:00 19.9 24 Oeste 42 Oeste 0 1013.4 -1.9 77
2019-06-09 18:00:00 19.8 29 Oeste 46 Oeste 0 1014.1 -1.4 81
2019-06-09 17:00:00 19.5 31 Oeste 45 Oeste 0 1014.4 -1.9 87
2019-06-09 16:00:00 19.9 28 Oeste 40 Oeste 0 1015.3 -1.3 87
2019-06-09 15:00:00 20.4 22 Oeste 36 Oeste 0 1015.5 -1.2 88
2019-06-09 14:00:00 20.1 24 Oeste 37 Oeste 0 1016.3 -0.4 88
2019-06-09 13:00:00 20.5 17 Oeste 31 Oeste 0 1016.6 -0.4 88
2019-06-09 12:00:00 20.5 14 Oeste 26 Oeste 0 1016.7 -0.3 87
2019-06-09 11:00:00 20.2 15 Oeste 26 Oeste 0 1016.7 -0.5 86
2019-06-09 10:00:00 20 16 Oeste 24 Sudoeste 0 1017 -0.5 83
2019-06-09 09:00:00 19.8 16 Oeste 26 Oeste 0 1017 -0.4 87
2019-06-09 08:00:00 19 13 Oeste 22 Oeste 0 1017.2 -0.4 94
2019-06-09 07:00:00 18.9 12 Oeste 21 Oeste 0 1017.5 -0.4 95
2019-06-09 06:00:00 19.2 12 Oeste 18 Sudoeste 0 1017.4 -0.5 93
2019-06-09 05:00:00 20 6 Oeste 9 Oeste 0 1017.6 -0.9 86
2019-06-09 04:00:00 19.7 2 Sudoeste 8 Sudoeste 0 1017.9 -1.3 89
2019-06-09 03:00:00 20.3 2 Sudoeste 6 Oeste 0 1017.9 -1 87
2019-06-09 02:00:00 20.5 0 Calma 13 Oeste 0 1018.5 -0.3 87
2019-06-09 01:00:00 20.3 7 Oeste 14 Oeste 0 1019.2 1 88
2019-06-09 00:00:00 20 7 Oeste 13 Oeste 0 1018.9 1.3 90
2019-06-08 23:00:00 19.9 6 Oeste 9 Oeste 0 1018.8 2.3 89
2019-06-08 22:00:00 20.6 0 Calma 11 Este 0 1018.2 1.3 86
2019-06-08 21:00:00 21.1 2 Nordeste 9 Noroeste 0 1017.6 1.1 81
2019-06-08 20:00:00 22.7 0 Calma 10 Sudeste 0 1016.5 0.1 76
2019-06-08 19:00:00 21.9 3 Sudeste 14 Sur 0 1016.9 0.4 77
2019-06-08 18:00:00 21.5 9 Sudeste 21 Sur 0 1016.5 0.4 78
2019-06-08 17:00:00 23.9 4 Sudoeste 14 Sudoeste 0 1016.4 -0.9 71
2019-06-08 16:00:00 24.6 2 Sur 17 Sudoeste 0 1016.5 -0.9 63
2019-06-08 15:00:00 24.8 4 Sudoeste 14 Sudoeste 0 1016.1 -1.5 60
2019-06-08 14:00:00 22.9 9 Oeste 14 Oeste 0 1017.3 0 67
2019-06-08 13:00:00 23 5 Sudoeste 11 Sudoeste 0 1017.4 0.2 70
2019-06-08 12:00:00 22.6 4 Sudeste 9 Sur 0 1017.6 0.4 70
2019-06-08 11:00:00 23.7 2 Sur 8 Sudoeste 0 1017.3 0.8 65
2019-06-08 10:00:00 22.3 0 Calma 12 Sudeste 0 1017.2 -0.2 71
2019-06-08 09:00:00 20.7 3 Este 12 Este 0 1017.2 -0.4 78
2019-06-08 08:00:00 19 0 Calma 12 Nordeste 0 1016.5 -1 82
2019-06-08 07:00:00 17.3 0 Calma 8 Nordeste 0 1017.4 -0.2 86
2019-06-08 06:00:00 18 5 Este 8 Este 0 1017.6 0.1 92
2019-06-08 05:00:00 18.3 4 Este 14 Este 0 1017.5 0 84
2019-06-08 04:00:00 18.6 9 Este 16 Este 0 1017.6 0.4 91
2019-06-08 03:00:00 18.8 5 Este 15 Este 0 1017.5 1.2 83
2019-06-08 02:00:00 19 5 Este 14 Nordeste 0 1017.5 2.3 83
2019-06-08 01:00:00 19.2 5 Este 10 Este 0 1017.2 2.6 81
2019-06-08 00:00:00 19.5 5 Este 14 Este 0 1016.3 2.6 78
2019-06-07 23:00:00 20 6 Este 14 Este 0 1015.2 1.5 75
2019-06-07 22:00:00 19.9 2 Sudoeste 19 Oeste 0 1014.6 1 73
2019-06-07 21:00:00 20.7 10 Oeste 31 Oeste 0 1013.7 0.3 70
2019-06-07 20:00:00 20 17 Oeste 35 Oeste 0 1013.7 -0.5 75
2019-06-07 19:00:00 20.4 19 Oeste 35 Sudoeste 0 1013.6 -0.5 73
2019-06-07 18:00:00 20.5 18 Oeste 36 Sudoeste 0 1013.4 -0.8 75
2019-06-07 17:00:00 19.8 22 Oeste 35 Oeste 0 1014.2 -0.7 82
2019-06-07 16:00:00 20.3 17 Sudoeste 31 Sudoeste 0 1014.1 -0.6 79
2019-06-07 15:00:00 20.2 18 Sudoeste 32 Oeste 0 1014.2 0.7 78
2019-06-07 14:00:00 20.3 18 Oeste 27 Sudoeste 0 1014.9 1.7 77
2019-06-07 13:00:00 20.1 15 Oeste 22 Oeste 0 1014.7 1.9 74
2019-06-07 12:00:00 21 6 Sudeste 18 Sudeste 0 1013.5 0.8 70
2019-06-07 11:00:00 19.7 6 Sudeste 15 Sudeste 0 1013.2 0.7 77
2019-06-07 10:00:00 20 7 Sudeste 19 Este 0 1012.8 1 75
2019-06-07 09:00:00 19.1 9 Este 15 Sudeste 0 1012.7 1.2 77
2019-06-07 08:00:00 17.7 4 Nordeste 10 Nordeste 0 1012.5 1 81
2019-06-07 07:00:00 16.3 0 Calma 6 Oeste 0 1011.8 0.6 78
2019-06-07 06:00:00 17.1 3 Noroeste 14 Oeste 0 1011.5 -0.1 81
2019-06-07 05:00:00 17.1 10 Oeste 27 Oeste 0 1011.5 -0.1 83
2019-06-07 04:00:00 17.3 19 Oeste 30 Oeste 0 1011.2 -0.3 80
2019-06-07 03:00:00 17.4 11 Oeste 26 Oeste 0 1011.6 0.2 80
2019-06-07 02:00:00 18.2 15 Oeste 27 Oeste 0 1011.6 0.8 78
2019-06-07 01:00:00 18.7 15 Oeste 26 Oeste 0 1011.5 1.5 73
2019-06-07 00:00:00 19.1 13 Oeste 28 Oeste 0 1011.4 1.6 71
2019-06-06 23:00:00 19.8 16 Oeste 27 Oeste 0 1010.8 1.5 64
2019-06-06 22:00:00 20.2 16 Oeste 25 Oeste 0 1010 1 60
2019-06-06 21:00:00 20.8 15 Oeste 33 Oeste 0 1009.8 -0.3 59
2019-06-06 20:00:00 21.1 19 Oeste 31 Oeste 0 1009.3 -1.5 57
2019-06-06 19:00:00 21.1 17 Oeste 29 Oeste 0 1009 -2.4 62
2019-06-06 18:00:00 21 19 Oeste 34 Oeste 0 1010.1 -2 59
2019-06-06 17:00:00 19.7 18 Oeste 27 Oeste 0 1010.8 -1.9 74
2019-06-06 16:00:00 19.7 18 Oeste 28 Oeste 0 1011.4 -1.4 82
2019-06-06 15:00:00 19.8 18 Oeste 26 Oeste 0 1012.1 -1.1 81
2019-06-06 14:00:00 20.4 12 Sudoeste 22 Oeste 0 1012.7 0.8 78
2019-06-06 13:00:00 20.9 9 Sudoeste 20 Sudoeste 0 1012.8 1 77
2019-06-06 12:00:00 20.5 10 Oeste 16 Oeste 0 1013.2 0.9 76
2019-06-06 11:00:00 23 0 Calma 8 Sudoeste 0 1011.9 -1 66
2019-06-06 10:00:00 22.8 2 Sur 6 Sudoeste 0 1011.8 -1.2 65
2019-06-06 09:00:00 21.4 0 Calma 4 Sudeste 0 1012.3 -0.3 64
2019-06-06 08:00:00 18.7 0 Calma 4 Este 0 1012.9 0.5 66
2019-06-06 07:00:00 17 0 Calma 5 Norte 0 1013 0.2 64
2019-06-06 06:00:00 17.4 2 Norte 6 Norte 0 1012.6 -0.1 65
2019-06-06 05:00:00 17.7 4 Norte 8 Noroeste 0 1012.4 -0.2 75
2019-06-06 04:00:00 17.9 0 Calma 6 Oeste 0 1012.8 0.2 78
2019-06-06 03:00:00 18.1 0 Calma 5 Norte 0 1012.7 0.5 76
2019-06-06 02:00:00 19.3 3 Sudeste 6 Este 0 1012.6 1 71
2019-06-06 01:00:00 19.5 2 Norte 6 Nordeste 0 1012.6 1.4 71
2019-06-06 00:00:00 19.8 3 Norte 12 Este 0 1012.2 1.7 73
2019-06-05 23:00:00 20.4 3 Este 10 Este 0 1011.6 1.4 71
2019-06-05 22:00:00 19.3 0 Calma 18 Oeste 0 1011.2 1.6 77
2019-06-05 21:00:00 19.5 10 Oeste 28 Oeste 0 1010.5 0.9 75
2019-06-05 20:00:00 20 17 Oeste 37 Oeste 0 1010.2 0.5 72
2019-06-05 19:00:00 20 22 Oeste 46 Oeste 0 1009.6 -0.9 71
2019-06-05 18:00:00 20.1 28 Oeste 50 Oeste 0 1009.6 -1.3 70
2019-06-05 17:00:00 20.1 28 Oeste 52 Oeste 0 1009.7 -1.4 66
2019-06-05 16:00:00 20.4 33 Oeste 57 Oeste 0 1010.5 -0.3 60
2019-06-05 15:00:00 20.7 29 Oeste 49 Oeste 0 1010.9 0.3 59
2019-06-05 14:00:00 20.6 30 Oeste 50 Oeste 0 1011.1 0.9 59
2019-06-05 13:00:00 20.7 30 Oeste 49 Oeste 0 1010.8 1.6 55
2019-06-05 12:00:00 20.5 23 Oeste 49 Oeste 0 1010.6 2 60
2019-06-05 11:00:00 20 26 Sudoeste 44 Oeste 0 1010.2 2 65
2019-06-05 10:00:00 21.3 18 Sudoeste 53 Sudoeste 0 1009.2 1.2 66
2019-06-05 09:00:00 21.9 25 Sudoeste 55 Sudoeste 0 1008.6 0.8 55
2019-06-05 08:00:00 20.5 21 Oeste 43 Sudoeste 0 1008.2 0.5 75
2019-06-05 07:00:00 19.8 28 Oeste 42 Oeste 0 1008 -0.1 86
2019-06-05 06:00:00 19.8 20 Oeste 36 Oeste 0 1007.8 -1 87
2019-06-05 05:00:00 19.4 12 Oeste 36 Sudoeste 0 1007.7 -1.5 89
2019-06-05 04:00:00 19.8 19 Oeste 33 Oeste 0 1008.1 -0.9 88
2019-06-05 03:00:00 20 17 Oeste 32 Oeste 0 1008.8 -0.2 87
2019-06-05 02:00:00 20.2 2 Oeste 9 Sudoeste 0 1009.2 0.5 88
2019-06-05 01:00:00 20.4 8 Sudoeste 25 Oeste 0 1009 0.9 86
2019-06-05 00:00:00 21.2 5 Sudoeste 15 Sudoeste 0 1009 1.1 78
2019-06-04 23:00:00 21.2 9 Oeste 28 Oeste 0 1008.7 1.1 79
2019-06-04 22:00:00 21.6 13 Oeste 30 Oeste 0 1008.1 0.2 77
2019-06-04 21:00:00 21.9 16 Oeste 31 Sudoeste 0 1007.9 -0.6 77
2019-06-04 20:00:00 21.8 17 Oeste 31 Sudoeste 0 1007.6 -1.4 73
2019-06-04 19:00:00 21.2 18 Sudoeste 30 Sudoeste 0 1007.9 -2.4 77
2019-06-04 18:00:00 21.8 14 Oeste 26 Sudoeste 0 1008.5 -2.8 76
2019-06-04 17:00:00 21.4 16 Sudoeste 35 Sudoeste 0 1009 -3.5 75
2019-06-04 16:00:00 20.6 23 Sudoeste 37 Sudoeste 0 1010.3 -2.4 83
2019-06-04 15:00:00 20.5 20 Sudoeste 33 Sudoeste 0 1011.3 -1.3 88
2019-06-04 14:00:00 20.7 21 Sudoeste 32 Sudoeste 0 1012.5 -0.1 86
2019-06-04 13:00:00 21.6 14 Sudoeste 23 Sudoeste 0 1012.7 -0.1 78
2019-06-04 12:00:00 21.7 9 Sudoeste 16 Sudoeste 0 1012.6 0.1 76
2019-06-04 11:00:00 21.7 8 Sudoeste 16 Sudoeste 0 1012.6 0.1 75
2019-06-04 10:00:00 21.6 7 Sudoeste 15 Sudoeste 0 1012.8 -0.4 71
2019-06-04 09:00:00 21.5 3 Sudeste 5 Sudeste 0 1012.5 -0.5 62
2019-06-04 08:00:00 20.3 0 Calma 5 Norte 0 1012.5 -0.4 62
2019-06-04 07:00:00 18.5 2 Norte 5 Noroeste 0 1013.2 -0.2 56
2019-06-04 06:00:00 18.4 2 Noroeste 5 Este 0 1013 -1.2 55
2019-06-04 05:00:00 18.9 3 Norte 6 Norte 0 1012.9 -2 62
2019-06-04 04:00:00 19.1 0 Calma 5 Norte 0 1013.4 -1.9 56
2019-06-04 03:00:00 19.6 0 Calma 8 Este 0 1014.2 -1.4 59
2019-06-04 02:00:00 20.5 2 Este 8 Oeste 0 1014.9 -0.6 55
2019-06-04 01:00:00 20.3 2 Oeste 7 Oeste 0 1015.3 0.3 58
2019-06-04 00:00:00 20.3 2 Norte 5 Este 0 1015.6 0.7 67
2019-06-03 23:00:00 20.3 5 Oeste 11 Oeste 0 1015.5 0.9 78
2019-06-03 22:00:00 20.8 4 Oeste 15 Oeste 0 1015 1.4 78
2019-06-03 21:00:00 21.3 9 Sudoeste 16 Oeste 0 1014.9 -0.6 75
2019-06-03 20:00:00 22.8 6 Sudoeste 10 Sudoeste 0 1014.6 -0.3 61
2019-06-03 19:00:00 24.6 3 Sudoeste 12 Sudoeste 0 1013.6 -2.2 63
2019-06-03 18:00:00 22.2 8 Sudoeste 14 Sudoeste 0 1015.5 -1.4 74
2019-06-03 17:00:00 23.1 6 Sudoeste 15 Sur 0 1014.9 -2.1 71
2019-06-03 16:00:00 23.5 4 Sudoeste 12 Sudoeste 0 1015.8 -1.6 70
2019-06-03 15:00:00 23.3 5 Sudoeste 15 Sudoeste 0 1016.9 -0.4 70
2019-06-03 14:00:00 24 4 Sur 14 Sudoeste 0 1017 0 68
2019-06-03 13:00:00 22.8 4 Sur 13 Sudoeste 0 1017.4 0.2 71
2019-06-03 12:00:00 23.7 4 Sudoeste 10 Sudoeste 0 1017.3 0 71
2019-06-03 11:00:00 23.4 3 Sur 9 Sur 0 1017 -0.2 66
2019-06-03 10:00:00 23.1 4 Sur 9 Sur 0 1017.2 -0.5 65
2019-06-03 09:00:00 20.7 4 Sudoeste 10 Oeste 0 1017.3 -0.5 71
2019-06-03 08:00:00 19.8 3 Oeste 6 Oeste 0 1017.2 -0.6 76
2019-06-03 07:00:00 18.3 0 Calma 6 Norte 0 1017.7 -0.6 76
2019-06-03 06:00:00 18.2 3 Norte 6 Norte 0 1017.8 -0.9 71
2019-06-03 05:00:00 18.2 3 Norte 5 Norte 0 1017.8 -1.2 71
2019-06-03 04:00:00 18.9 2 Norte 6 Noroeste 0 1018.3 -1.2 68
2019-06-03 03:00:00 19.1 3 Norte 7 Nordeste 0 1018.7 -0.9 66
2019-06-03 02:00:00 19.6 4 Noroeste 6 Noroeste 0 1019 0.1 64
2019-06-03 01:00:00 20.1 0 Calma 5 Norte 0 1019.5 1.7 59
2019-06-03 00:00:00 20.5 0 Calma 8 Oeste 0 1019.6 2.5 59
2019-06-02 23:00:00 20.6 7 Oeste 10 Oeste 0 1018.9 2.7 65
2019-06-02 22:00:00 20.9 5 Sudoeste 9 Oeste 0 1017.8 1.7 64
2019-06-02 21:00:00 22.5 2 Sudoeste 9 Sudoeste 0 1017.1 0.7 54
2019-06-02 20:00:00 23.5 4 Sudoeste 9 Sur 0 1016.2 -0.4 51
2019-06-02 19:00:00 24 4 Sudoeste 10 Sudeste 0 1016.1 -1 47
2019-06-02 18:00:00 24.7 4 Sudoeste 9 Sudeste 0 1016.4 -0.8 49
2019-06-02 17:00:00 24.6 3 Sudeste 10 Sur 0 1016.6 -1.5 45
2019-06-02 16:00:00 25.2 3 Sur 12 Sur 0 1017.1 -1.7 45
2019-06-02 15:00:00 25 3 Sudoeste 13 Sudoeste 0 1017.2 -1.6 44
2019-06-02 14:00:00 25 4 Sudoeste 14 Sudoeste 0 1018.1 -0.5 43
2019-06-02 13:00:00 23.3 8 Sudoeste 15 Sudoeste 0 1018.8 0.3 49
2019-06-02 12:00:00 22.3 9 Sudoeste 15 Sudoeste 0 1018.8 0.9 60
2019-06-02 11:00:00 22.3 7 Sudoeste 12 Sudoeste 0 1018.6 0.3 56
2019-06-02 10:00:00 22.7 5 Sudoeste 9 Sudoeste 0 1018.5 -0.9 48
2019-06-02 09:00:00 23.6 0 Calma 5 Oeste 0 1017.9 -1.2 45
2019-06-02 08:00:00 21.2 0 Calma 7 Norte 0 1018.3 -1.1 54
2019-06-02 07:00:00 18.2 3 Norte 7 Norte 0 1019.4 -0.2 57
2019-06-02 06:00:00 18 4 Norte 5 Norte 0 1019.1 -0.8 59
2019-06-02 05:00:00 18.4 0 Calma 5 Norte 0 1019.4 -0.8 59
2019-06-02 04:00:00 18.9 0 Calma 6 Noroeste 0 1019.6 -0.7 58
2019-06-02 03:00:00 18.7 0 Calma 3 Oeste 0 1019.9 -0.2 61
2019-06-02 02:00:00 19.4 0 Calma 8 Oeste 0 1020.2 0.2 61
2019-06-02 01:00:00 19.7 0 Calma 5 Noroeste 0 1020.3 1.1 60
2019-06-02 00:00:00 20 2 Norte 12 Oeste 0 1020.1 1.3 64
2019-06-01 23:00:00 20.3 8 Oeste 12 Oeste 0 1020 2.4 71
2019-06-01 22:00:00 20.4 4 Noroeste 11 Sudeste 0 1019.2 1.7 71
2019-06-01 21:00:00 21.2 5 Sudeste 13 Sur 0 1018.8 1.1 63
2019-06-01 20:00:00 23.1 0 Calma 18 Sudeste 0 1017.6 -0.7 57
2019-06-01 19:00:00 23.9 4 Sudoeste 13 Sudoeste 0 1017.5 -1.5 55
2019-06-01 18:00:00 23.7 3 Sur 15 Sudoeste 0 1017.7 -1 52
2019-06-01 17:00:00 23.3 3 Sudoeste 21 Oeste 0 1018.3 -1 55
2019-06-01 16:00:00 23.2 9 Sudoeste 26 Sudeste 0 1019 -0.6 58
2019-06-01 15:00:00 22.6 16 Sudeste 28 Sudeste 0 1018.7 -1.1 56
2019-06-01 14:00:00 22.7 14 Sudeste 27 Sudeste 0 1019.3 -0.1 55
2019-06-01 13:00:00 23.4 14 Sudeste 32 Sudeste 0 1019.6 -0.3 49
2019-06-01 12:00:00 22.3 17 Sudeste 27 Sudeste 0 1019.8 0.7 52
2019-06-01 11:00:00 22 13 Oeste 20 Oeste 0 1019.4 0 53
2019-06-01 10:00:00 21.4 9 Oeste 13 Oeste 0 1019.9 -0.4 59
2019-06-01 09:00:00 23.1 2 Sudoeste 7 Sudeste 0 1019.1 -1.4 60
2019-06-01 08:00:00 20.7 0 Calma 6 Noroeste 0 1019.4 -1.4 64
2019-06-01 07:00:00 18.1 0 Calma 4 Noroeste 0 1020.3 -0.2 72
2019-06-01 06:00:00 17.9 3 Norte 5 Norte 0 1020.5 0.1 72
2019-06-01 05:00:00 18.2 0 Calma 5 Nordeste 0 1020.8 0.1 71
2019-06-01 04:00:00 19.2 3 Este 11 Oeste 0 1020.5 -0.1 69
2019-06-01 03:00:00 19.3 7 Oeste 17 Oeste 0 1020.4 -0.1 71
2019-06-01 02:00:00 19.8 5 Noroeste 9 Noroeste 0 1020.7 0.8 71
2019-06-01 01:00:00 19.8 4 Oeste 15 Oeste 0 1020.6 1.8 71
2019-06-01 00:00:00 21 8 Oeste 19 Oeste 0 1020.5 1.9 62
2019-05-31 23:00:00 21.8 2 Nordeste 24 Este 0 1019.9 1.3 59
2019-05-31 22:00:00 22.4 13 Este 30 Sudeste 0 1018.8 0.2 56
2019-05-31 21:00:00 23.5 15 Este 34 Este 0 1018.6 0.2 54
2019-05-31 20:00:00 21.9 5 Este 15 Este 0 1018.6 0.1 69
2019-05-31 19:00:00 21.8 10 Sudeste 25 Sudeste 0 1018.6 -0.5 70
2019-05-31 18:00:00 23.2 9 Sudeste 26 Este 0 1018.4 -0.5 58
2019-05-31 17:00:00 23.9 14 Sudeste 30 Sudeste 0 1018.5 -1.9 55
2019-05-31 16:00:00 23.5 18 Sudeste 37 Este 0 1019.1 -1.6 54
2019-05-31 15:00:00 25.7 17 Este 37 Sudeste 0 1018.9 -2.2 43
2019-05-31 14:00:00 22.8 16 Sudeste 39 Sudeste 0 1020.4 -0.5 59
2019-05-31 13:00:00 22.5 15 Sudeste 32 Sudeste 0 1020.7 0 57
2019-05-31 12:00:00 22.5 15 Este 37 Este 0 1021.1 0.1 55
2019-05-31 11:00:00 23.5 13 Sudeste 27 Sudeste 0 1020.9 0.1 48
2019-05-31 10:00:00 23.2 2 Sudoeste 10 Sudoeste 0 1020.7 -0.8 51
2019-05-31 09:00:00 20.9 6 Sudoeste 10 Sudoeste 0 1021 -0.3 56
2019-05-31 08:00:00 20.1 0 Calma 6 Este 0 1020.8 -0.5 57
2019-05-31 07:00:00 18.3 3 Nordeste 14 Este 0 1021.5 0.1 60
2019-05-31 06:00:00 18.8 3 Nordeste 11 Nordeste 0 1021.3 -0.6 61
2019-05-31 05:00:00 18.9 0 Calma 21 Este 0 1021.3 -1.3 61
2019-05-31 04:00:00 19.4 5 Este 11 Norte 0 1021.4 -2 59
2019-05-31 03:00:00 19.5 4 Nordeste 11 Este 0 1021.9 -1.9 61
2019-05-31 02:00:00 19.8 3 Nordeste 13 Norte 0 1022.6 -0.8 62
2019-05-31 01:00:00 18.9 7 Este 15 Este 0 1023.4 0.9 66
2019-05-31 00:00:00 19.8 5 Nordeste 24 Este 0 1023.8 2.1 66
2019-05-30 23:00:00 20.2 9 Nordeste 22 Nordeste 0 1023.4 2.4 65
2019-05-30 22:00:00 20.8 10 Este 30 Este 0 1022.5 1.4 61
2019-05-30 21:00:00 21.9 12 Este 30 Este 0 1021.7 0 55
2019-05-30 20:00:00 23.3 11 Este 27 Sudeste 0 1021 -0.9 50
2019-05-30 19:00:00 21.3 14 Sudeste 29 Sudeste 0 1021.1 -1 67
2019-05-30 18:00:00 20.9 17 Sudeste 29 Sudeste 0 1021.7 -0.9 66
2019-05-30 17:00:00 21 15 Sudeste 32 Sudeste 0 1021.9 -1 62
2019-05-30 16:00:00 20.7 22 Sudeste 36 Sudeste 0 1022.1 -0.9 64
2019-05-30 15:00:00 21.5 21 Sudeste 36 Sudeste 0 1022.6 -0.4 60
2019-05-30 14:00:00 20.8 16 Sudeste 34 Sudeste 0 1022.9 0.1 67
2019-05-30 13:00:00 21 23 Sudeste 34 Sudeste 0 1023 0.5 63
2019-05-30 12:00:00 21.1 17 Sudeste 32 Sudeste 0 1023 0.3 65
2019-05-30 11:00:00 21.3 14 Sudeste 23 Sudeste 0 1022.8 0.6 59
2019-05-30 10:00:00 23.1 3 Sur 9 Sudoeste 0 1022.5 -0.2 54
2019-05-30 09:00:00 20.6 6 Oeste 10 Oeste 0 1022.7 0.4 62
2019-05-30 08:00:00 20.3 2 Norte 13 Este 0 1022.2 0 58
2019-05-30 07:00:00 18.2 7 Este 18 Nordeste 0 1022.7 0 63
2019-05-30 06:00:00 18.3 6 Nordeste 14 Este 0 1022.3 -0.4 66
2019-05-30 05:00:00 18.7 4 Nordeste 11 Norte 0 1022.2 -0.6 67
2019-05-30 04:00:00 18.2 0 Calma 7 Nordeste 0 1022.7 0 65
2019-05-30 03:00:00 18.7 3 Norte 9 Noroeste 0 1022.7 0.4 65
2019-05-30 02:00:00 19.1 2 Noroeste 6 Este 0 1022.8 0.9 65
2019-05-30 01:00:00 19.4 3 Este 14 Este 0 1022.7 1.7 65
2019-05-30 00:00:00 19.9 8 Este 16 Este 0 1022.3 2.1 61
2019-05-29 23:00:00 20.1 8 Este 17 Este 0 1021.9 2.5 67
2019-05-29 22:00:00 19.8 5 Este 22 Este 0 1021 2.2 77
2019-05-29 21:00:00 19.9 14 Sudeste 28 Sudeste 0 1020.2 1.7 80
2019-05-29 20:00:00 19.9 17 Sudeste 27 Sudeste 0 1019.4 1 78
2019-05-29 19:00:00 20 18 Sudeste 27 Sudeste 0 1018.8 0.2 76
2019-05-29 18:00:00 20.9 14 Sudeste 27 Sudeste 0 1018.5 -0.3 73
2019-05-29 17:00:00 20.6 15 Sudeste 26 Sudeste 0 1018.4 -0.4 72
2019-05-29 16:00:00 20.3 16 Sudeste 30 Sudeste 0 1018.6 0 76
2019-05-29 15:00:00 20.7 19 Sudeste 33 Sudeste 0 1018.8 0.9 76
2019-05-29 14:00:00 20.6 18 Sudeste 33 Sudeste 0 1018.8 1.4 77
2019-05-29 13:00:00 21.1 15 Sudeste 33 Sudeste 0 1018.6 1.5 75
2019-05-29 12:00:00 21.2 19 Sudeste 30 Sudeste 0 1017.9 0.4 66
2019-05-29 11:00:00 23.8 12 Este 23 Sudeste 0 1017.4 0.5 49
2019-05-29 10:00:00 23.7 4 Sudeste 13 Este 0 1017.1 0.4 50
2019-05-29 09:00:00 21.7 5 Sudoeste 10 Oeste 0 1017.5 1.2 76
2019-05-29 08:00:00 21 4 Nordeste 11 Norte 0 1016.9 0.7 76
2019-05-29 07:00:00 20.2 4 Este 13 Norte 0 1016.7 0.7 79
2019-05-29 06:00:00 20.3 3 Este 14 Este 0 1016.3 0.6 79
2019-05-29 05:00:00 19.7 4 Nordeste 14 Nordeste 0 1016.2 0.6 83
2019-05-29 04:00:00 20 4 Este 15 Este 0 1016 1 84
2019-05-29 03:00:00 19.7 0 Calma 14 Nordeste 0 1015.7 1.1 83
2019-05-29 02:00:00 20.1 5 Este 11 Este 0 1015.6 1.4 87
2019-05-29 01:00:00 20.3 3 Este 11 Este 0 1015 1.6 86
2019-05-29 00:00:00 20.4 3 Este 9 Este 0 1014.6 1.9 84
2019-05-28 23:00:00 20.5 4 Este 10 Este 0 1014.2 3 83
2019-05-28 22:00:00 20.8 5 Sudeste 12 Sudeste 0 1013.4 2.7 81
2019-05-28 21:00:00 21.5 2 Sudeste 8 Sudeste 0 1012.7 1.7 78
2019-05-28 20:00:00 22.5 0 Calma 10 Este 0 1011.2 0.5 79
2019-05-28 19:00:00 22.5 3 Sudeste 15 Sudeste 0 1010.7 0.1 79
2019-05-28 18:00:00 23 3 Sudeste 10 Este 0 1011 -0.1 76
2019-05-28 17:00:00 22.9 4 Sudeste 9 Sudeste 0 1010.7 -0.7 72
2019-05-28 16:00:00 23.9 4 Sur 10 Sudeste 0 1010.6 -0.6 72
2019-05-28 15:00:00 23.3 4 Sudeste 10 Sudeste 0 1011.1 0.1 70
2019-05-28 14:00:00 23.8 0 Calma 12 Sudeste 0 1011.4 0.1 66
2019-05-28 13:00:00 23.2 0 Calma 12 Este 0 1011.2 0.4 70
2019-05-28 12:00:00 22.3 4 Sudeste 15 Este 0 1011 -0.1 72
2019-05-28 11:00:00 21 9 Sudeste 20 Sudeste 0 1011.3 0.8 73
2019-05-28 10:00:00 22.4 9 Este 16 Este 0 1010.8 0 62
2019-05-28 09:00:00 20.7 6 Este 13 Este 0 1011.1 0.6 75
2019-05-28 08:00:00 20.5 2 Nordeste 5 Nordeste 0 1010.5 0.1 64
2019-05-28 07:00:00 18.7 0 Calma 5 Norte 0 1010.8 0.6 70
2019-05-28 06:00:00 19 2 Norte 5 Norte 0 1010.5 -0.1 68
2019-05-28 05:00:00 19.7 2 Nordeste 10 Oeste 0 1010.4 -0.3 70
2019-05-28 04:00:00 19.9 6 Noroeste 13 Oeste 0 1010.2 -1 72
2019-05-28 03:00:00 20 7 Oeste 12 Oeste 0 1010.6 -0.7 76
2019-05-28 02:00:00 19.8 8 Oeste 16 Oeste 0 1010.7 -0.2 76
2019-05-28 01:00:00 20 10 Oeste 20 Oeste 0 1011.2 0.7 75
2019-05-28 00:00:00 19.9 12 Oeste 20 Oeste 0 1011.3 0.8 73
2019-05-27 23:00:00 20.3 12 Oeste 19 Oeste 0 1010.9 0.7 69
2019-05-27 22:00:00 20.4 9 Oeste 15 Oeste 0 1010.5 0.6 64
2019-05-27 21:00:00 21 3 Sudoeste 11 Oeste 0 1010.5 0.6 72
2019-05-27 20:00:00 20.8 9 Oeste 20 Oeste 0 1010.2 -0.1 73
2019-05-27 19:00:00 21.5 11 Sudoeste 18 Sudoeste 0 1009.9 -0.9 70
2019-05-27 18:00:00 22.2 9 Sudoeste 20 Sudoeste 0 1009.9 -1.6 65
2019-05-27 17:00:00 21.9 9 Sudoeste 21 Sudoeste 0 1010.3 -2 65
2019-05-27 16:00:00 21.9 13 Sudoeste 25 Sudoeste 0 1010.8 -1.7 70
2019-05-27 15:00:00 21.4 13 Sudoeste 21 Sudoeste 0 1011.5 -1.1 73
2019-05-27 14:00:00 21.6 9 Sudoeste 17 Sudoeste 0 1012.3 -1 73
2019-05-27 13:00:00 22.6 6 Sudoeste 14 Sudoeste 0 1012.5 -1 74
2019-05-27 12:00:00 22.5 4 Sur 11 Sur 0 1012.6 -0.4 76
2019-05-27 11:00:00 20.4 5 Sudeste 9 Sudeste 0 1013.3 0.3 78
2019-05-27 10:00:00 19.6 6 Sudeste 10 Sudeste 0 1013.5 -0.3 82
2019-05-27 09:00:00 20.8 3 Sudeste 4 Sur 0 1013 -0.7 77
2019-05-27 08:00:00 19.6 0 Calma 6 Norte 0 1013 -0.8 86
2019-05-27 07:00:00 17.4 2 Norte 4 Norte 0 1013.8 -0.1 86
2019-05-27 06:00:00 17.8 2 Norte 5 Noroeste 0 1013.7 -0.9 82
2019-05-27 05:00:00 17 0 Calma 5 Norte 0 1013.8 -1.4 84
2019-05-27 04:00:00 17.5 2 Norte 6 Norte 0 1013.9 2.5 88
2019-05-27 03:00:00 18.3 5 Oeste 10 Oeste 0 1014.6 3 88
2019-05-27 02:00:00 18 4 Oeste 8 Oeste 0 1015.2 3.3 86
2019-05-27 01:00:00 21.5 2 Norte 5 Noroeste 0 1011.4 -0.7 89
2019-05-27 00:00:00 22.1 3 Norte 5 Norte 0 1011.6 -0.2 86
2019-05-26 23:00:00 22 0 Calma 3 Nordeste 0 1011.9 0.2 87
2019-05-26 22:00:00 22.6 0 Calma 9 Sudoeste 0 1012.1 1.1 87
2019-05-26 21:00:00 22.8 6 Oeste 11 Oeste 0 1011.8 1.5 88
2019-05-26 20:00:00 23.2 6 Oeste 10 Oeste 0 1011.7 2.4 87
2019-05-26 19:00:00 23.5 5 Oeste 11 Oeste 0 1011 1.5 80
2019-05-26 18:00:00 24.2 8 Oeste 14 Oeste 0 1010.3 0.8 76
2019-05-26 17:00:00 25.1 6 Sudoeste 13 Sudoeste 0 1009.3 -1 71
2019-05-26 16:00:00 25.7 6 Sudoeste 15 Sudoeste 0 1009.5 -0.9 67
2019-05-26 15:00:00 27 5 Sur 11 Sudoeste 0 1009.5 -1.6 62
2019-05-26 14:00:00 26.7 4 Sudoeste 11 Sudoeste 0 1010.3 -1.5 63
2019-05-26 13:00:00 27 4 Sur 12 Sudoeste 0 1010.4 -1.1 63
2019-05-26 12:00:00 26.2 4 Sudoeste 11 Sudoeste 0 1011.1 -0.4 66
2019-05-26 11:00:00 26.9 3 Sudoeste 10 Sur 0 1011.8 0.4 61
2019-05-26 10:00:00 -- -- -- -- -- -- -- -- --
2019-05-26 09:00:00 -- -- -- -- -- -- -- -- --
2019-05-26 08:00:00 -- -- -- -- -- -- -- -- --
2019-05-26 07:00:00 -- -- -- -- -- -- -- -- --
2019-05-26 06:00:00 -- -- -- -- -- -- -- -- --
2019-05-26 05:00:00 -- -- -- -- -- -- -- -- --
2019-05-26 04:00:00 -- -- -- -- -- -- -- -- --
2019-05-26 03:00:00 -- -- -- -- -- -- -- -- --
2019-05-26 02:00:00 -- -- -- -- -- -- -- -- --
2019-05-26 01:00:00 -- -- -- -- -- -- -- -- --
2019-05-26 00:00:00 -- -- -- -- -- -- -- -- --